sensor_id;sensor_type;location;lat;lon;timestamp;temperature;humidity
32753;DHT22;19121;52.428;10.816;2022-12-31T00:00:54;17.90;48.20
32753;DHT22;19121;52.428;10.816;2022-12-31T00:03:19;17.90;48.30
32753;DHT22;19121;52.428;10.816;2022-12-31T00:05:45;17.90;48.20
32753;DHT22;19121;52.428;10.816;2022-12-31T00:08:10;17.90;48.30
32753;DHT22;19121;52.428;10.816;2022-12-31T00:10:35;17.90;48.30
32753;DHT22;19121;52.428;10.816;2022-12-31T00:13:09;17.90;48.30
32753;DHT22;19121;52.428;10.816;2022-12-31T00:15:35;17.90;48.30
32753;DHT22;19121;52.428;10.816;2022-12-31T00:18:00;17.90;48.30
32753;DHT22;19121;52.428;10.816;2022-12-31T00:20:26;17.90;48.30
32753;DHT22;19121;52.428;10.816;2022-12-31T00:22:51;17.80;48.30
32753;DHT22;19121;52.428;10.816;2022-12-31T00:25:17;17.80;48.30
32753;DHT22;19121;52.428;10.816;2022-12-31T00:27:42;17.90;48.40
32753;DHT22;19121;52.428;10.816;2022-12-31T00:30:08;17.90;48.40
32753;DHT22;19121;52.428;10.816;2022-12-31T00:32:33;17.80;48.30
32753;DHT22;19121;52.428;10.816;2022-12-31T00:34:58;17.80;48.30
32753;DHT22;19121;52.428;10.816;2022-12-31T00:37:24;17.80;48.30
32753;DHT22;19121;52.428;10.816;2022-12-31T00:39:49;17.80;48.30
32753;DHT22;19121;52.428;10.816;2022-12-31T00:42:15;17.80;48.30
32753;DHT22;19121;52.428;10.816;2022-12-31T00:44:40;17.90;48.40
32753;DHT22;19121;52.428;10.816;2022-12-31T00:47:05;17.80;48.40
32753;DHT22;19121;52.428;10.816;2022-12-31T00:49:31;17.80;48.40
32753;DHT22;19121;52.428;10.816;2022-12-31T00:51:56;17.80;48.40
32753;DHT22;19121;52.428;10.816;2022-12-31T00:54:22;17.80;48.40
32753;DHT22;19121;52.428;10.816;2022-12-31T00:56:47;17.80;48.40
32753;DHT22;19121;52.428;10.816;2022-12-31T00:59:12;17.80;48.40
32753;DHT22;19121;52.428;10.816;2022-12-31T01:01:38;17.80;48.40
32753;DHT22;19121;52.428;10.816;2022-12-31T01:04:14;17.80;48.40
32753;DHT22;19121;52.428;10.816;2022-12-31T01:06:40;17.80;48.50
32753;DHT22;19121;52.428;10.816;2022-12-31T01:09:05;17.80;48.50
32753;DHT22;19121;52.428;10.816;2022-12-31T01:11:31;17.80;48.50
32753;DHT22;19121;52.428;10.816;2022-12-31T01:13:58;17.80;48.70
32753;DHT22;19121;52.428;10.816;2022-12-31T01:16:28;17.80;48.50
32753;DHT22;19121;52.428;10.816;2022-12-31T01:18:56;17.80;48.50
32753;DHT22;19121;52.428;10.816;2022-12-31T01:21:22;17.80;48.50
32753;DHT22;19121;52.428;10.816;2022-12-31T01:23:47;17.70;48.40
32753;DHT22;19121;52.428;10.816;2022-12-31T01:26:13;17.80;48.50
32753;DHT22;19121;52.428;10.816;2022-12-31T01:28:39;17.70;48.40
32753;DHT22;19121;52.428;10.816;2022-12-31T01:31:06;17.80;48.60
32753;DHT22;19121;52.428;10.816;2022-12-31T01:33:32;17.80;48.50
32753;DHT22;19121;52.428;10.816;2022-12-31T01:36:01;17.80;48.60
32753;DHT22;19121;52.428;10.816;2022-12-31T01:38:26;17.80;48.60
32753;DHT22;19121;52.428;10.816;2022-12-31T01:40:52;17.80;48.60
32753;DHT22;19121;52.428;10.816;2022-12-31T01:43:18;17.80;48.60
32753;DHT22;19121;52.428;10.816;2022-12-31T01:45:51;17.80;48.60
32753;DHT22;19121;52.428;10.816;2022-12-31T01:48:22;17.80;48.60
32753;DHT22;19121;52.428;10.816;2022-12-31T01:50:48;17.80;48.60
32753;DHT22;19121;52.428;10.816;2022-12-31T01:53:15;17.80;48.60
32753;DHT22;19121;52.428;10.816;2022-12-31T01:55:51;17.80;48.60
32753;DHT22;19121;52.428;10.816;2022-12-31T01:58:22;17.70;48.60
32753;DHT22;19121;52.428;10.816;2022-12-31T02:00:50;17.70;48.60
32753;DHT22;19121;52.428;10.816;2022-12-31T02:03:17;17.80;48.70
32753;DHT22;19121;52.428;10.816;2022-12-31T02:05:45;17.80;48.70
32753;DHT22;19121;52.428;10.816;2022-12-31T02:08:12;17.80;48.60
32753;DHT22;19121;52.428;10.816;2022-12-31T02:10:38;17.70;48.60
32753;DHT22;19121;52.428;10.816;2022-12-31T02:13:03;17.80;48.70
32753;DHT22;19121;52.428;10.816;2022-12-31T02:15:42;17.70;48.60
32753;DHT22;19121;52.428;10.816;2022-12-31T02:18:11;17.70;48.70
32753;DHT22;19121;52.428;10.816;2022-12-31T02:23:31;17.70;48.70
32753;DHT22;19121;52.428;10.816;2022-12-31T02:31:25;17.70;48.70
32753;DHT22;19121;52.428;10.816;2022-12-31T02:36:24;17.70;48.70
32753;DHT22;19121;52.428;10.816;2022-12-31T02:38:50;17.70;48.70
32753;DHT22;19121;52.428;10.816;2022-12-31T02:41:17;17.70;48.70
32753;DHT22;19121;52.428;10.816;2022-12-31T02:44:19;17.70;48.70
32753;DHT22;19121;52.428;10.816;2022-12-31T02:46:47;17.70;48.70
32753;DHT22;19121;52.428;10.816;2022-12-31T02:49:22;17.70;48.70
32753;DHT22;19121;52.428;10.816;2022-12-31T02:57:10;17.70;48.70
32753;DHT22;19121;52.428;10.816;2022-12-31T02:59:49;17.70;48.80
32753;DHT22;19121;52.428;10.816;2022-12-31T03:02:34;17.70;48.70
32753;DHT22;19121;52.428;10.816;2022-12-31T03:05:02;17.70;48.70
32753;DHT22;19121;52.428;10.816;2022-12-31T03:07:29;17.70;48.70
32753;DHT22;19121;52.428;10.816;2022-12-31T03:09:54;17.70;48.70
32753;DHT22;19121;52.428;10.816;2022-12-31T03:12:21;17.70;48.70
32753;DHT22;19121;52.428;10.816;2022-12-31T03:15:05;17.70;48.70
32753;DHT22;19121;52.428;10.816;2022-12-31T03:17:31;17.70;48.70
32753;DHT22;19121;52.428;10.816;2022-12-31T03:19:57;17.70;48.80
32753;DHT22;19121;52.428;10.816;2022-12-31T03:22:41;17.70;48.80
32753;DHT22;19121;52.428;10.816;2022-12-31T03:25:11;17.70;48.70
32753;DHT22;19121;52.428;10.816;2022-12-31T03:27:56;17.70;48.70
32753;DHT22;19121;52.428;10.816;2022-12-31T03:30:22;17.70;48.70
32753;DHT22;19121;52.428;10.816;2022-12-31T03:32:47;17.70;48.70
32753;DHT22;19121;52.428;10.816;2022-12-31T03:35:14;17.70;48.70
32753;DHT22;19121;52.428;10.816;2022-12-31T03:37:40;17.70;48.70
32753;DHT22;19121;52.428;10.816;2022-12-31T03:40:06;17.70;48.80
32753;DHT22;19121;52.428;10.816;2022-12-31T03:42:32;17.70;48.80
32753;DHT22;19121;52.428;10.816;2022-12-31T03:44:57;17.70;48.80
32753;DHT22;19121;52.428;10.816;2022-12-31T03:47:22;17.70;48.80
32753;DHT22;19121;52.428;10.816;2022-12-31T03:49:48;17.70;48.80
32753;DHT22;19121;52.428;10.816;2022-12-31T03:52:13;17.70;48.80
32753;DHT22;19121;52.428;10.816;2022-12-31T03:54:39;17.70;48.80
32753;DHT22;19121;52.428;10.816;2022-12-31T03:57:05;17.60;48.70
32753;DHT22;19121;52.428;10.816;2022-12-31T03:59:30;17.60;48.70
32753;DHT22;19121;52.428;10.816;2022-12-31T04:01:56;17.70;48.80
32753;DHT22;19121;52.428;10.816;2022-12-31T04:04:21;17.70;48.80
32753;DHT22;19121;52.428;10.816;2022-12-31T04:06:47;17.70;48.80
32753;DHT22;19121;52.428;10.816;2022-12-31T04:09:12;17.70;48.80
32753;DHT22;19121;52.428;10.816;2022-12-31T04:11:37;17.70;48.80
32753;DHT22;19121;52.428;10.816;2022-12-31T04:14:03;17.60;48.80
32753;DHT22;19121;52.428;10.816;2022-12-31T04:16:28;17.70;48.90
32753;DHT22;19121;52.428;10.816;2022-12-31T04:18:54;17.70;48.80
32753;DHT22;19121;52.428;10.816;2022-12-31T04:21:19;17.60;48.80
32753;DHT22;19121;52.428;10.816;2022-12-31T04:23:44;17.70;48.90
32753;DHT22;19121;52.428;10.816;2022-12-31T04:26:10;17.70;48.80
32753;DHT22;19121;52.428;10.816;2022-12-31T04:28:35;17.70;48.80
32753;DHT22;19121;52.428;10.816;2022-12-31T04:31:01;17.70;48.80
32753;DHT22;19121;52.428;10.816;2022-12-31T04:33:28;17.60;48.80
32753;DHT22;19121;52.428;10.816;2022-12-31T04:35:58;17.70;48.90
32753;DHT22;19121;52.428;10.816;2022-12-31T04:38:24;17.70;48.90
32753;DHT22;19121;52.428;10.816;2022-12-31T04:40:49;17.70;48.90
32753;DHT22;19121;52.428;10.816;2022-12-31T04:43:34;17.70;48.90
32753;DHT22;19121;52.428;10.816;2022-12-31T04:45:59;17.70;48.90
32753;DHT22;19121;52.428;10.816;2022-12-31T04:48:24;17.60;48.80
32753;DHT22;19121;52.428;10.816;2022-12-31T04:50:50;17.60;48.90
32753;DHT22;19121;52.428;10.816;2022-12-31T04:53:15;17.60;48.80
32753;DHT22;19121;52.428;10.816;2022-12-31T04:55:41;17.70;48.90
32753;DHT22;19121;52.428;10.816;2022-12-31T04:58:06;17.60;48.80
32753;DHT22;19121;52.428;10.816;2022-12-31T05:00:31;17.60;48.80
32753;DHT22;19121;52.428;10.816;2022-12-31T05:02:57;17.70;48.90
32753;DHT22;19121;52.428;10.816;2022-12-31T05:05:22;17.60;48.90
32753;DHT22;19121;52.428;10.816;2022-12-31T05:07:48;17.60;48.80
32753;DHT22;19121;52.428;10.816;2022-12-31T05:10:13;17.60;48.80
32753;DHT22;19121;52.428;10.816;2022-12-31T05:12:39;17.60;48.80
32753;DHT22;19121;52.428;10.816;2022-12-31T05:15:04;17.60;48.80
32753;DHT22;19121;52.428;10.816;2022-12-31T05:17:30;17.60;48.90
32753;DHT22;19121;52.428;10.816;2022-12-31T05:19:55;17.60;48.80
32753;DHT22;19121;52.428;10.816;2022-12-31T05:22:21;17.60;48.80
32753;DHT22;19121;52.428;10.816;2022-12-31T05:24:56;17.60;48.80
32753;DHT22;19121;52.428;10.816;2022-12-31T05:27:22;17.60;48.80
32753;DHT22;19121;52.428;10.816;2022-12-31T05:29:47;17.60;48.80
32753;DHT22;19121;52.428;10.816;2022-12-31T05:32:13;17.60;48.80
32753;DHT22;19121;52.428;10.816;2022-12-31T05:34:38;17.60;48.90
32753;DHT22;19121;52.428;10.816;2022-12-31T05:37:04;17.60;48.90
32753;DHT22;19121;52.428;10.816;2022-12-31T05:39:29;17.60;48.90
32753;DHT22;19121;52.428;10.816;2022-12-31T05:41:55;17.60;48.90
32753;DHT22;19121;52.428;10.816;2022-12-31T05:44:20;17.60;48.90
32753;DHT22;19121;52.428;10.816;2022-12-31T05:46:45;17.60;48.90
32753;DHT22;19121;52.428;10.816;2022-12-31T05:49:11;17.60;48.90
32753;DHT22;19121;52.428;10.816;2022-12-31T05:51:37;17.60;48.90
32753;DHT22;19121;52.428;10.816;2022-12-31T05:54:02;17.60;48.90
32753;DHT22;19121;52.428;10.816;2022-12-31T05:56:27;17.60;49.00
32753;DHT22;19121;52.428;10.816;2022-12-31T05:58:53;17.60;49.00
32753;DHT22;19121;52.428;10.816;2022-12-31T06:01:18;17.60;49.00
32753;DHT22;19121;52.428;10.816;2022-12-31T06:03:44;17.60;49.00
32753;DHT22;19121;52.428;10.816;2022-12-31T06:06:09;17.60;49.00
32753;DHT22;19121;52.428;10.816;2022-12-31T06:08:35;17.60;49.00
32753;DHT22;19121;52.428;10.816;2022-12-31T06:11:00;17.60;49.00
32753;DHT22;19121;52.428;10.816;2022-12-31T06:13:26;17.60;49.00
32753;DHT22;19121;52.428;10.816;2022-12-31T06:15:51;17.60;49.00
32753;DHT22;19121;52.428;10.816;2022-12-31T06:18:17;17.60;49.00
32753;DHT22;19121;52.428;10.816;2022-12-31T06:20:42;17.60;49.00
32753;DHT22;19121;52.428;10.816;2022-12-31T06:23:08;17.60;49.00
32753;DHT22;19121;52.428;10.816;2022-12-31T06:25:33;17.60;49.00
32753;DHT22;19121;52.428;10.816;2022-12-31T06:27:59;17.70;49.00
32753;DHT22;19121;52.428;10.816;2022-12-31T06:30:24;17.70;49.00
32753;DHT22;19121;52.428;10.816;2022-12-31T06:32:50;17.70;48.90
32753;DHT22;19121;52.428;10.816;2022-12-31T06:35:15;17.70;48.90
32753;DHT22;19121;52.428;10.816;2022-12-31T06:37:40;17.70;48.80
32753;DHT22;19121;52.428;10.816;2022-12-31T06:40:06;17.80;48.90
32753;DHT22;19121;52.428;10.816;2022-12-31T06:42:32;17.80;48.90
32753;DHT22;19121;52.428;10.816;2022-12-31T06:44:57;17.70;48.80
32753;DHT22;19121;52.428;10.816;2022-12-31T06:47:23;17.80;48.90
32753;DHT22;19121;52.428;10.816;2022-12-31T06:49:48;17.80;48.90
32753;DHT22;19121;52.428;10.816;2022-12-31T06:52:14;17.70;48.90
32753;DHT22;19121;52.428;10.816;2022-12-31T06:54:39;17.70;48.80
32753;DHT22;19121;52.428;10.816;2022-12-31T06:57:05;17.70;48.90
32753;DHT22;19121;52.428;10.816;2022-12-31T06:59:30;17.80;48.90
32753;DHT22;19121;52.428;10.816;2022-12-31T07:04:45;17.70;48.90
32753;DHT22;19121;52.428;10.816;2022-12-31T07:07:28;17.80;49.00
32753;DHT22;19121;52.428;10.816;2022-12-31T07:13:01;17.80;48.90
32753;DHT22;19121;52.428;10.816;2022-12-31T07:15:46;17.80;49.00
32753;DHT22;19121;52.428;10.816;2022-12-31T07:20:49;17.80;49.00
32753;DHT22;19121;52.428;10.816;2022-12-31T07:23:14;17.70;48.90
32753;DHT22;19121;52.428;10.816;2022-12-31T07:25:40;17.80;49.00
32753;DHT22;19121;52.428;10.816;2022-12-31T07:28:30;17.80;48.90
32753;DHT22;19121;52.428;10.816;2022-12-31T07:31:07;17.70;48.90
32753;DHT22;19121;52.428;10.816;2022-12-31T07:33:40;17.80;49.00
32753;DHT22;19121;52.428;10.816;2022-12-31T07:36:15;17.80;49.00
32753;DHT22;19121;52.428;10.816;2022-12-31T07:46:12;17.80;49.00
32753;DHT22;19121;52.428;10.816;2022-12-31T07:48:39;17.80;49.00
32753;DHT22;19121;52.428;10.816;2022-12-31T07:51:04;17.80;49.00
32753;DHT22;19121;52.428;10.816;2022-12-31T07:53:30;17.80;49.00
32753;DHT22;19121;52.428;10.816;2022-12-31T07:55:59;17.80;49.00
32753;DHT22;19121;52.428;10.816;2022-12-31T07:58:28;17.80;49.00
32753;DHT22;19121;52.428;10.816;2022-12-31T08:00:56;17.80;49.00
32753;DHT22;19121;52.428;10.816;2022-12-31T08:03:25;17.80;49.10
32753;DHT22;19121;52.428;10.816;2022-12-31T08:06:09;17.80;49.00
32753;DHT22;19121;52.428;10.816;2022-12-31T08:08:43;17.80;49.00
32753;DHT22;19121;52.428;10.816;2022-12-31T08:13:45;17.80;49.00
32753;DHT22;19121;52.428;10.816;2022-12-31T08:16:11;17.80;49.10
32753;DHT22;19121;52.428;10.816;2022-12-31T08:18:37;17.80;49.10
32753;DHT22;19121;52.428;10.816;2022-12-31T08:21:07;17.80;49.10
32753;DHT22;19121;52.428;10.816;2022-12-31T08:23:43;17.80;49.10
32753;DHT22;19121;52.428;10.816;2022-12-31T08:26:19;17.80;49.10
32753;DHT22;19121;52.428;10.816;2022-12-31T08:29:00;17.80;49.10
32753;DHT22;19121;52.428;10.816;2022-12-31T08:31:30;17.80;49.00
32753;DHT22;19121;52.428;10.816;2022-12-31T08:34:20;17.80;49.10
32753;DHT22;19121;52.428;10.816;2022-12-31T08:41:57;17.90;49.10
32753;DHT22;19121;52.428;10.816;2022-12-31T08:44:27;17.90;49.10
32753;DHT22;19121;52.428;10.816;2022-12-31T08:49:26;17.80;49.10
32753;DHT22;19121;52.428;10.816;2022-12-31T08:51:52;17.90;49.10
32753;DHT22;19121;52.428;10.816;2022-12-31T08:54:17;17.90;49.10
32753;DHT22;19121;52.428;10.816;2022-12-31T08:59:12;17.90;49.10
32753;DHT22;19121;52.428;10.816;2022-12-31T09:01:43;17.90;49.10
32753;DHT22;19121;52.428;10.816;2022-12-31T09:04:29;17.90;49.20
32753;DHT22;19121;52.428;10.816;2022-12-31T09:06:59;17.90;49.80
32753;DHT22;19121;52.428;10.816;2022-12-31T09:09:27;17.90;49.20
32753;DHT22;19121;52.428;10.816;2022-12-31T09:12:07;17.90;49.20
32753;DHT22;19121;52.428;10.816;2022-12-31T09:19:40;17.90;49.20
32753;DHT22;19121;52.428;10.816;2022-12-31T09:22:05;17.90;49.20
32753;DHT22;19121;52.428;10.816;2022-12-31T09:24:31;17.90;49.20
32753;DHT22;19121;52.428;10.816;2022-12-31T09:29:36;17.90;49.20
32753;DHT22;19121;52.428;10.816;2022-12-31T09:32:11;17.90;49.20
32753;DHT22;19121;52.428;10.816;2022-12-31T09:37:36;17.90;49.30
32753;DHT22;19121;52.428;10.816;2022-12-31T09:40:09;17.90;49.30
32753;DHT22;19121;52.428;10.816;2022-12-31T09:48:20;18.00;49.40
32753;DHT22;19121;52.428;10.816;2022-12-31T09:50:55;18.00;49.40
32753;DHT22;19121;52.428;10.816;2022-12-31T09:53:29;18.00;49.40
32753;DHT22;19121;52.428;10.816;2022-12-31T09:56:07;18.00;49.30
32753;DHT22;19121;52.428;10.816;2022-12-31T09:58:50;18.00;49.40
32753;DHT22;19121;52.428;10.816;2022-12-31T10:01:38;18.00;49.40
32753;DHT22;19121;52.428;10.816;2022-12-31T10:06:58;18.00;49.30
32753;DHT22;19121;52.428;10.816;2022-12-31T10:09:41;18.00;49.30
32753;DHT22;19121;52.428;10.816;2022-12-31T10:12:28;18.10;49.40
32753;DHT22;19121;52.428;10.816;2022-12-31T10:15:27;18.00;49.40
32753;DHT22;19121;52.428;10.816;2022-12-31T10:17:57;18.10;49.40
32753;DHT22;19121;52.428;10.816;2022-12-31T10:20:44;18.10;49.40
32753;DHT22;19121;52.428;10.816;2022-12-31T10:25:43;18.10;49.50
32753;DHT22;19121;52.428;10.816;2022-12-31T10:30:39;18.10;49.40
32753;DHT22;19121;52.428;10.816;2022-12-31T10:35:48;18.10;49.50
32753;DHT22;19121;52.428;10.816;2022-12-31T10:38:21;18.10;49.50
32753;DHT22;19121;52.428;10.816;2022-12-31T10:40:59;18.10;49.50
32753;DHT22;19121;52.428;10.816;2022-12-31T10:49:21;18.20;49.50
32753;DHT22;19121;52.428;10.816;2022-12-31T10:54:27;18.20;50.00
32753;DHT22;19121;52.428;10.816;2022-12-31T10:59:45;18.10;51.00
32753;DHT22;19121;52.428;10.816;2022-12-31T11:04:47;18.20;51.90
32753;DHT22;19121;52.428;10.816;2022-12-31T11:10:01;18.20;52.00
32753;DHT22;19121;52.428;10.816;2022-12-31T11:17:57;18.20;52.80
32753;DHT22;19121;52.428;10.816;2022-12-31T11:25:49;18.20;53.90
32753;DHT22;19121;52.428;10.816;2022-12-31T11:28:22;18.20;54.00
32753;DHT22;19121;52.428;10.816;2022-12-31T11:30:59;18.20;53.70
32753;DHT22;19121;52.428;10.816;2022-12-31T11:33:33;18.20;53.60
32753;DHT22;19121;52.428;10.816;2022-12-31T11:36:10;18.30;53.60
32753;DHT22;19121;52.428;10.816;2022-12-31T11:38:39;18.30;53.30
32753;DHT22;19121;52.428;10.816;2022-12-31T11:41:13;18.30;53.20
32753;DHT22;19121;52.428;10.816;2022-12-31T11:44:00;18.30;53.10
32753;DHT22;19121;52.428;10.816;2022-12-31T11:46:33;18.30;53.00
32753;DHT22;19121;52.428;10.816;2022-12-31T11:49:07;18.30;52.90
32753;DHT22;19121;52.428;10.816;2022-12-31T11:54:13;18.30;52.80
32753;DHT22;19121;52.428;10.816;2022-12-31T11:56:50;18.30;52.70
32753;DHT22;19121;52.428;10.816;2022-12-31T11:59:17;18.30;52.70
32753;DHT22;19121;52.428;10.816;2022-12-31T12:04:20;18.30;52.60
32753;DHT22;19121;52.428;10.816;2022-12-31T12:06:45;18.40;52.70
32753;DHT22;19121;52.428;10.816;2022-12-31T12:09:13;18.40;52.60
32753;DHT22;19121;52.428;10.816;2022-12-31T12:11:40;18.40;52.70
32753;DHT22;19121;52.428;10.816;2022-12-31T12:14:21;18.40;52.90
32753;DHT22;19121;52.428;10.816;2022-12-31T12:16:51;18.40;53.30
32753;DHT22;19121;52.428;10.816;2022-12-31T12:19:17;18.40;53.50
32753;DHT22;19121;52.428;10.816;2022-12-31T12:21:46;18.40;53.50
32753;DHT22;19121;52.428;10.816;2022-12-31T12:26:41;18.40;53.50
32753;DHT22;19121;52.428;10.816;2022-12-31T12:29:08;18.50;53.50
32753;DHT22;19121;52.428;10.816;2022-12-31T12:31:33;18.40;53.20
32753;DHT22;19121;52.428;10.816;2022-12-31T12:33:59;18.50;53.80
32753;DHT22;19121;52.428;10.816;2022-12-31T12:36:24;18.50;52.80
32753;DHT22;19121;52.428;10.816;2022-12-31T12:38:59;18.50;52.60
32753;DHT22;19121;52.428;10.816;2022-12-31T12:41:25;18.50;52.80
32753;DHT22;19121;52.428;10.816;2022-12-31T12:44:02;18.60;53.00
32753;DHT22;19121;52.428;10.816;2022-12-31T12:46:34;18.50;52.70
32753;DHT22;19121;52.428;10.816;2022-12-31T12:49:03;18.60;52.50
32753;DHT22;19121;52.428;10.816;2022-12-31T12:51:36;18.60;52.50
32753;DHT22;19121;52.428;10.816;2022-12-31T12:54:16;18.60;52.70
32753;DHT22;19121;52.428;10.816;2022-12-31T12:56:58;18.60;52.70
32753;DHT22;19121;52.428;10.816;2022-12-31T13:07:29;18.60;52.60
32753;DHT22;19121;52.428;10.816;2022-12-31T13:10:03;18.60;52.40
32753;DHT22;19121;52.428;10.816;2022-12-31T13:12:32;18.60;52.40
32753;DHT22;19121;52.428;10.816;2022-12-31T13:15:02;18.60;52.40
32753;DHT22;19121;52.428;10.816;2022-12-31T13:19:57;18.60;52.60
32753;DHT22;19121;52.428;10.816;2022-12-31T13:22:43;18.70;52.70
32753;DHT22;19121;52.428;10.816;2022-12-31T13:27:49;18.70;52.70
32753;DHT22;19121;52.428;10.816;2022-12-31T13:30:20;18.70;52.50
32753;DHT22;19121;52.428;10.816;2022-12-31T13:32:47;18.70;52.40
32753;DHT22;19121;52.428;10.816;2022-12-31T13:35:24;18.70;52.10
32753;DHT22;19121;52.428;10.816;2022-12-31T13:37:52;18.70;51.90
32753;DHT22;19121;52.428;10.816;2022-12-31T13:40:29;18.70;51.80
32753;DHT22;19121;52.428;10.816;2022-12-31T13:42:58;18.70;51.70
32753;DHT22;19121;52.428;10.816;2022-12-31T13:45:27;18.70;53.90
32753;DHT22;19121;52.428;10.816;2022-12-31T13:47:56;18.70;55.20
32753;DHT22;19121;52.428;10.816;2022-12-31T13:50:27;18.80;55.70
32753;DHT22;19121;52.428;10.816;2022-12-31T13:52:59;18.80;55.50
32753;DHT22;19121;52.428;10.816;2022-12-31T13:55:29;18.80;55.00
32753;DHT22;19121;52.428;10.816;2022-12-31T14:01:15;18.80;54.30
32753;DHT22;19121;52.428;10.816;2022-12-31T14:03:48;18.80;54.10
32753;DHT22;19121;52.428;10.816;2022-12-31T14:06:22;18.80;53.70
32753;DHT22;19121;52.428;10.816;2022-12-31T14:08:51;18.80;53.60
32753;DHT22;19121;52.428;10.816;2022-12-31T14:11:19;18.80;53.50
32753;DHT22;19121;52.428;10.816;2022-12-31T14:16:25;18.80;53.40
32753;DHT22;19121;52.428;10.816;2022-12-31T14:21:26;18.80;53.10
32753;DHT22;19121;52.428;10.816;2022-12-31T14:24:02;18.80;53.20
32753;DHT22;19121;52.428;10.816;2022-12-31T14:26:32;18.80;53.10
32753;DHT22;19121;52.428;10.816;2022-12-31T14:29:01;18.80;52.90
32753;DHT22;19121;52.428;10.816;2022-12-31T14:31:43;18.80;52.90
32753;DHT22;19121;52.428;10.816;2022-12-31T14:42:07;18.80;52.60
32753;DHT22;19121;52.428;10.816;2022-12-31T14:44:41;18.80;52.70
32753;DHT22;19121;52.428;10.816;2022-12-31T14:52:29;18.80;52.50
32753;DHT22;19121;52.428;10.816;2022-12-31T14:54:58;18.80;52.80
32753;DHT22;19121;52.428;10.816;2022-12-31T14:57:25;18.80;52.60
32753;DHT22;19121;52.428;10.816;2022-12-31T14:59:54;18.80;52.50
32753;DHT22;19121;52.428;10.816;2022-12-31T15:02:30;18.80;52.70
32753;DHT22;19121;52.428;10.816;2022-12-31T15:05:30;18.80;52.60
32753;DHT22;19121;52.428;10.816;2022-12-31T15:10:15;18.80;52.50
32753;DHT22;19121;52.428;10.816;2022-12-31T15:12:59;18.80;52.20
32753;DHT22;19121;52.428;10.816;2022-12-31T15:15:29;18.80;52.10
32753;DHT22;19121;52.428;10.816;2022-12-31T15:18:15;18.80;52.20
32753;DHT22;19121;52.428;10.816;2022-12-31T15:20:52;18.80;51.90
32753;DHT22;19121;52.428;10.816;2022-12-31T15:23:21;18.80;51.70
32753;DHT22;19121;52.428;10.816;2022-12-31T15:25:47;18.80;51.70
32753;DHT22;19121;52.428;10.816;2022-12-31T15:30:58;18.80;51.80
32753;DHT22;19121;52.428;10.816;2022-12-31T15:33:28;18.80;51.80
32753;DHT22;19121;52.428;10.816;2022-12-31T15:35:54;18.80;51.80
32753;DHT22;19121;52.428;10.816;2022-12-31T15:38:33;18.80;51.80
32753;DHT22;19121;52.428;10.816;2022-12-31T15:40:59;18.80;51.80
32753;DHT22;19121;52.428;10.816;2022-12-31T15:44:07;18.80;51.70
32753;DHT22;19121;52.428;10.816;2022-12-31T15:46:24;18.80;51.70
32753;DHT22;19121;52.428;10.816;2022-12-31T15:49:23;18.80;51.70
32753;DHT22;19121;52.428;10.816;2022-12-31T15:51:53;18.80;51.70
32753;DHT22;19121;52.428;10.816;2022-12-31T15:54:21;18.80;51.60
32753;DHT22;19121;52.428;10.816;2022-12-31T15:56:48;18.80;51.60
32753;DHT22;19121;52.428;10.816;2022-12-31T15:59:15;18.80;51.60
32753;DHT22;19121;52.428;10.816;2022-12-31T16:01:41;18.80;51.50
32753;DHT22;19121;52.428;10.816;2022-12-31T16:04:17;18.80;51.50
32753;DHT22;19121;52.428;10.816;2022-12-31T16:06:43;18.80;51.60
32753;DHT22;19121;52.428;10.816;2022-12-31T16:09:26;18.80;51.50
32753;DHT22;19121;52.428;10.816;2022-12-31T16:11:52;18.80;51.50
32753;DHT22;19121;52.428;10.816;2022-12-31T16:14:41;18.80;51.50
32753;DHT22;19121;52.428;10.816;2022-12-31T16:17:04;18.80;51.50
32753;DHT22;19121;52.428;10.816;2022-12-31T16:19:34;18.80;51.50
32753;DHT22;19121;52.428;10.816;2022-12-31T16:22:01;18.80;51.50
32753;DHT22;19121;52.428;10.816;2022-12-31T16:24:31;18.80;51.40
32753;DHT22;19121;52.428;10.816;2022-12-31T16:27:01;18.80;51.40
32753;DHT22;19121;52.428;10.816;2022-12-31T16:29:28;18.80;51.40
32753;DHT22;19121;52.428;10.816;2022-12-31T16:31:55;18.80;51.40
32753;DHT22;19121;52.428;10.816;2022-12-31T16:34:21;18.80;51.40
32753;DHT22;19121;52.428;10.816;2022-12-31T16:39:23;18.80;51.40
32753;DHT22;19121;52.428;10.816;2022-12-31T16:41:49;18.80;51.40
32753;DHT22;19121;52.428;10.816;2022-12-31T16:44:28;18.80;51.40
32753;DHT22;19121;52.428;10.816;2022-12-31T16:46:57;18.80;51.30
32753;DHT22;19121;52.428;10.816;2022-12-31T16:49:23;18.80;51.40
32753;DHT22;19121;52.428;10.816;2022-12-31T16:51:49;18.80;51.40
32753;DHT22;19121;52.428;10.816;2022-12-31T16:54:19;18.80;51.30
32753;DHT22;19121;52.428;10.816;2022-12-31T16:56:45;18.80;51.30
32753;DHT22;19121;52.428;10.816;2022-12-31T16:59:13;18.80;51.30
32753;DHT22;19121;52.428;10.816;2022-12-31T17:01:41;18.80;51.30
32753;DHT22;19121;52.428;10.816;2022-12-31T17:04:11;18.80;51.30
32753;DHT22;19121;52.428;10.816;2022-12-31T17:06:38;18.80;51.30
32753;DHT22;19121;52.428;10.816;2022-12-31T17:09:12;18.80;51.20
32753;DHT22;19121;52.428;10.816;2022-12-31T17:11:55;18.80;51.20
32753;DHT22;19121;52.428;10.816;2022-12-31T17:14:21;18.80;51.20
32753;DHT22;19121;52.428;10.816;2022-12-31T17:17:04;18.80;51.20
32753;DHT22;19121;52.428;10.816;2022-12-31T17:19:37;18.80;51.20
32753;DHT22;19121;52.428;10.816;2022-12-31T17:22:03;18.80;51.20
32753;DHT22;19121;52.428;10.816;2022-12-31T17:24:29;18.80;51.10
32753;DHT22;19121;52.428;10.816;2022-12-31T17:27:01;18.80;51.10
32753;DHT22;19121;52.428;10.816;2022-12-31T17:29:26;18.80;51.20
32753;DHT22;19121;52.428;10.816;2022-12-31T17:32:02;18.80;51.20
32753;DHT22;19121;52.428;10.816;2022-12-31T17:34:33;18.70;51.10
32753;DHT22;19121;52.428;10.816;2022-12-31T17:39:41;18.80;51.10
32753;DHT22;19121;52.428;10.816;2022-12-31T17:42:07;18.80;51.10
32753;DHT22;19121;52.428;10.816;2022-12-31T17:44:35;18.80;51.10
32753;DHT22;19121;52.428;10.816;2022-12-31T17:47:02;18.70;51.00
32753;DHT22;19121;52.428;10.816;2022-12-31T17:49:29;18.80;51.10
32753;DHT22;19121;52.428;10.816;2022-12-31T17:51:54;18.80;51.10
32753;DHT22;19121;52.428;10.816;2022-12-31T17:54:20;18.80;51.10
32753;DHT22;19121;52.428;10.816;2022-12-31T17:56:45;18.70;51.00
32753;DHT22;19121;52.428;10.816;2022-12-31T17:59:14;18.80;51.10
32753;DHT22;19121;52.428;10.816;2022-12-31T18:01:40;18.70;51.00